Tropical Cyclones
[Index]
Main Index Home Page Stock Weather Photos Extreme Storms Discussion Storm News and Storm Chasing Reports Tropical Cyclones / Hurricanes / Typhoons Weather Data and Links Wild Fires / Bushfires Weather Observation Techniques Weather Picture Catalogue Tornado Pictures and Reports Stock Video Footage and DVDs for sale
Season 2005-2006 Tropical Cyclone FLOYD Track Map
Season 2005-2006 Summaries: [BoM-AU] [JTWC-AU] [JTWC-SIO] [JTWC-SPAC] [JTWC-SH]
<<- Previous TC | JTWC 2005-2006 Season | Next TC ->>

click for intensity scale information  Lat/long Grid: Show Hide

 Date Labels: Show Hide

Joint Typhoon Warning Centre Cyclone Data

Name: FLOYD

19 Mar 2006 00:00 UTC to 27 Mar 2006 00:00 UTC

    date/time    lat    long     hPa   cat  kts
2006-03-19 00   11.2   118.5    1006         15          
2006-03-19 06   11.2   118.3    1007         20          
2006-03-19 12   11.3   118.0    1007         20          
2006-03-19 18   11.5   117.7    1007         20          
2006-03-20 00   11.6   117.3    1006         15          
2006-03-20 06   11.8   117.1    1006         15          
2006-03-20 12   12.0   116.9    1007         20          
2006-03-20 18   12.1   116.6    1003         25          
2006-03-21 00   12.3   116.1    1000         30          
2006-03-21 06   12.6   115.5     994    1    40          
2006-03-21 12   12.9   114.9     994    1    40          
2006-03-21 18   13.2   114.0     984    2    55          
2006-03-21 18   13.2   114.0     984    2    55          
2006-03-22 00   13.3   113.2     980    2    60          
2006-03-22 00   13.3   113.2     980    2    60          
2006-03-22 06   13.2   112.5     978    2    60          
2006-03-22 06   13.2   112.5     978    2    60          
2006-03-22 12   13.2   111.8     970    2    70          
2006-03-22 12   13.2   111.8     970    2    70          
2006-03-22 12   13.2   111.8     970    2    70          
2006-03-22 18   13.2   111.0     967    3    75          
2006-03-22 18   13.2   111.0     967    3    75          
2006-03-22 18   13.2   111.0     967    3    75          
2006-03-23 00   13.3   110.3     967    3    75          
2006-03-23 00   13.3   110.3     967    3    75          
2006-03-23 00   13.3   110.3     967    3    75          
2006-03-23 06   13.5   109.5     967    3    75          
2006-03-23 06   13.5   109.5     967    3    75          
2006-03-23 12   14.1   109.0     956    3    90          
2006-03-23 12   14.1   109.0     956    3    90          
2006-03-23 18   14.7   108.4     938    4   105          
2006-03-23 18   14.7   108.4     938    4   105          
2006-03-23 18   14.7   108.4     938    4   105          
2006-03-24 00   15.1   108.2     927    4   115          
2006-03-24 00   15.1   108.2     927    4   115          
2006-03-24 00   15.1   108.2     927    4   115          
2006-03-24 06   15.8   108.2     927    4   115          
2006-03-24 06   15.8   108.2     927    4   115          
2006-03-24 06   15.8   108.2     927    4   115          
2006-03-24 12   16.5   108.4     927    4   115          
2006-03-24 12   16.5   108.4     927    4   115          
2006-03-24 12   16.5   108.4     927    4   115          
2006-03-24 18   17.2   108.6     952    3    95          
2006-03-24 18   17.2   108.6     952    3    95          
2006-03-24 18   17.2   108.6     952    3    95          
2006-03-25 00   17.6   109.2     954    3    90          
2006-03-25 00   17.6   109.2     954    3    90          
2006-03-25 00   17.6   109.2     954    3    90          
2006-03-25 06   18.2   110.1     954    3    90          
2006-03-25 06   18.2   110.1     954    3    90          
2006-03-25 06   18.2   110.1     954    3    90          
2006-03-25 12   18.8   111.1     963    3    80          
2006-03-25 12   18.8   111.1     963    3    80          
2006-03-25 12   18.8   111.1     963    3    80          
2006-03-25 18   19.2   111.9     967    3    75          
2006-03-25 18   19.2   111.9     967    3    75          
2006-03-25 18   19.2   111.9     967    3    75          
2006-03-26 00   19.1   112.1     980    2    60          
2006-03-26 00   19.1   112.1     980    2    60          
2006-03-26 06   19.4   112.2     987    1    50          
2006-03-26 12   19.7   112.3     996         35          
2006-03-26 18   20.3   112.3     997         35          
2006-03-27 00   20.9   111.8    1000         30          
Winds are 1-min average.

Tropical cyclone tracks developed by Michael Bath using data from the Joint Typhoon Warning Centre Best Tracks and Google Maps.


[Australian Severe Weather index] [Copyright Notice] [Email Contacts] [Search This Site] [Privacy Policy]
Document: tropical_cyclone_floyd.htm Updated: 28 June 2017